sensor_id;sensor_type;location;lat;lon;timestamp;temperature;humidity
42663;DHT22;44330;51.360;6.686;2023-02-07T00:02:17;1.20;92.50
42663;DHT22;44330;51.360;6.686;2023-02-07T00:04:43;1.20;92.70
42663;DHT22;44330;51.360;6.686;2023-02-07T00:07:08;1.10;92.80
42663;DHT22;44330;51.360;6.686;2023-02-07T00:09:34;1.00;93.00
42663;DHT22;44330;51.360;6.686;2023-02-07T00:12:02;1.00;93.10
42663;DHT22;44330;51.360;6.686;2023-02-07T00:14:28;0.90;93.20
42663;DHT22;44330;51.360;6.686;2023-02-07T00:16:54;0.90;93.20
42663;DHT22;44330;51.360;6.686;2023-02-07T00:19:20;0.90;93.30
42663;DHT22;44330;51.360;6.686;2023-02-07T00:21:45;0.90;93.50
42663;DHT22;44330;51.360;6.686;2023-02-07T00:24:11;1.00;93.50
42663;DHT22;44330;51.360;6.686;2023-02-07T00:26:37;0.90;93.70
42663;DHT22;44330;51.360;6.686;2023-02-07T00:29:03;1.00;93.80
42663;DHT22;44330;51.360;6.686;2023-02-07T00:31:30;1.00;93.90
42663;DHT22;44330;51.360;6.686;2023-02-07T00:33:59;1.00;93.90
42663;DHT22;44330;51.360;6.686;2023-02-07T00:36:27;1.10;94.10
42663;DHT22;44330;51.360;6.686;2023-02-07T00:38:58;1.10;94.20
42663;DHT22;44330;51.360;6.686;2023-02-07T00:41:25;1.20;94.40
42663;DHT22;44330;51.360;6.686;2023-02-07T00:43:50;1.30;94.50
42663;DHT22;44330;51.360;6.686;2023-02-07T00:46:16;1.40;94.50
42663;DHT22;44330;51.360;6.686;2023-02-07T00:48:42;1.50;94.50
42663;DHT22;44330;51.360;6.686;2023-02-07T00:51:09;1.50;94.40
42663;DHT22;44330;51.360;6.686;2023-02-07T00:53:35;1.50;94.50
42663;DHT22;44330;51.360;6.686;2023-02-07T00:56:01;1.50;94.40
42663;DHT22;44330;51.360;6.686;2023-02-07T00:58:26;1.50;94.40
42663;DHT22;44330;51.360;6.686;2023-02-07T01:00:52;1.50;94.40
42663;DHT22;44330;51.360;6.686;2023-02-07T01:03:18;1.50;94.40
42663;DHT22;44330;51.360;6.686;2023-02-07T01:05:43;1.40;94.30
42663;DHT22;44330;51.360;6.686;2023-02-07T01:08:09;1.40;94.20
42663;DHT22;44330;51.360;6.686;2023-02-07T01:10:38;1.30;94.20
42663;DHT22;44330;51.360;6.686;2023-02-07T01:13:03;1.20;94.10
42663;DHT22;44330;51.360;6.686;2023-02-07T01:15:29;1.10;94.00
42663;DHT22;44330;51.360;6.686;2023-02-07T01:17:54;1.00;93.80
42663;DHT22;44330;51.360;6.686;2023-02-07T01:20:20;0.90;93.80
42663;DHT22;44330;51.360;6.686;2023-02-07T01:22:46;0.80;93.70
42663;DHT22;44330;51.360;6.686;2023-02-07T01:25:11;0.70;93.80
42663;DHT22;44330;51.360;6.686;2023-02-07T01:27:37;0.60;93.90
42663;DHT22;44330;51.360;6.686;2023-02-07T01:30:03;0.50;93.80
42663;DHT22;44330;51.360;6.686;2023-02-07T01:32:31;0.40;93.80
42663;DHT22;44330;51.360;6.686;2023-02-07T01:34:57;0.40;93.90
42663;DHT22;44330;51.360;6.686;2023-02-07T01:37:23;0.30;93.90
42663;DHT22;44330;51.360;6.686;2023-02-07T01:39:48;0.20;93.90
42663;DHT22;44330;51.360;6.686;2023-02-07T01:42:15;0.20;93.90
42663;DHT22;44330;51.360;6.686;2023-02-07T01:47:11;0.00;93.80
42663;DHT22;44330;51.360;6.686;2023-02-07T01:49:40;-0.10;93.90
42663;DHT22;44330;51.360;6.686;2023-02-07T01:52:09;-0.20;93.90
42663;DHT22;44330;51.360;6.686;2023-02-07T01:54:39;-0.30;94.00
42663;DHT22;44330;51.360;6.686;2023-02-07T01:57:07;-0.30;94.00
42663;DHT22;44330;51.360;6.686;2023-02-07T01:59:37;-0.30;94.10
42663;DHT22;44330;51.360;6.686;2023-02-07T02:02:05;-0.40;94.00
42663;DHT22;44330;51.360;6.686;2023-02-07T02:04:31;-0.40;94.00
42663;DHT22;44330;51.360;6.686;2023-02-07T02:06:57;-0.50;94.00
42663;DHT22;44330;51.360;6.686;2023-02-07T02:09:23;-0.60;93.90
42663;DHT22;44330;51.360;6.686;2023-02-07T02:12:19;-0.70;93.90
42663;DHT22;44330;51.360;6.686;2023-02-07T02:15:12;-0.70;94.00
42663;DHT22;44330;51.360;6.686;2023-02-07T02:17:59;-0.80;94.00
42663;DHT22;44330;51.360;6.686;2023-02-07T02:34:21;-1.00;94.20
42663;DHT22;44330;51.360;6.686;2023-02-07T02:37:07;-1.00;94.20
42663;DHT22;44330;51.360;6.686;2023-02-07T02:40:02;-1.10;94.20
42663;DHT22;44330;51.360;6.686;2023-02-07T02:42:30;-1.20;94.10
42663;DHT22;44330;51.360;6.686;2023-02-07T02:45:12;-1.30;94.00
42663;DHT22;44330;51.360;6.686;2023-02-07T02:47:42;-1.40;94.00
42663;DHT22;44330;51.360;6.686;2023-02-07T02:50:14;-1.40;94.00
42663;DHT22;44330;51.360;6.686;2023-02-07T02:52:42;-1.40;94.10
42663;DHT22;44330;51.360;6.686;2023-02-07T02:55:08;-1.40;94.10
42663;DHT22;44330;51.360;6.686;2023-02-07T03:53:07;-1.80;94.10
42663;DHT22;44330;51.360;6.686;2023-02-07T03:55:34;-1.80;94.10
42663;DHT22;44330;51.360;6.686;2023-02-07T03:57:59;-1.80;94.20
42663;DHT22;44330;51.360;6.686;2023-02-07T04:00:25;-1.80;94.20
42663;DHT22;44330;51.360;6.686;2023-02-07T04:02:51;-1.70;94.20
42663;DHT22;44330;51.360;6.686;2023-02-07T04:05:17;-1.80;94.20
42663;DHT22;44330;51.360;6.686;2023-02-07T04:07:42;-1.80;94.20
42663;DHT22;44330;51.360;6.686;2023-02-07T04:10:08;-1.70;94.20
42663;DHT22;44330;51.360;6.686;2023-02-07T04:12:34;-1.70;94.20
42663;DHT22;44330;51.360;6.686;2023-02-07T04:15:00;-1.70;94.20
42663;DHT22;44330;51.360;6.686;2023-02-07T04:17:26;-1.70;94.20
42663;DHT22;44330;51.360;6.686;2023-02-07T04:19:52;-1.70;94.20
42663;DHT22;44330;51.360;6.686;2023-02-07T04:22:18;-1.80;94.10
42663;DHT22;44330;51.360;6.686;2023-02-07T04:24:46;-1.70;94.10
42663;DHT22;44330;51.360;6.686;2023-02-07T04:27:12;-1.70;94.10
42663;DHT22;44330;51.360;6.686;2023-02-07T04:29:38;-1.60;94.00
42663;DHT22;44330;51.360;6.686;2023-02-07T04:32:03;-1.60;94.00
42663;DHT22;44330;51.360;6.686;2023-02-07T04:34:29;-1.60;94.10
42663;DHT22;44330;51.360;6.686;2023-02-07T04:36:55;-1.60;93.90
42663;DHT22;44330;51.360;6.686;2023-02-07T04:39:21;-1.50;93.80
42663;DHT22;44330;51.360;6.686;2023-02-07T04:41:46;-1.50;93.60
42663;DHT22;44330;51.360;6.686;2023-02-07T04:44:12;-1.50;93.50
42663;DHT22;44330;51.360;6.686;2023-02-07T04:46:38;-1.60;93.20
42663;DHT22;44330;51.360;6.686;2023-02-07T04:49:03;-1.60;93.10
42663;DHT22;44330;51.360;6.686;2023-02-07T04:51:29;-1.70;93.00
42663;DHT22;44330;51.360;6.686;2023-02-07T04:53:55;-1.70;92.90
42663;DHT22;44330;51.360;6.686;2023-02-07T04:56:21;-1.70;92.80
42663;DHT22;44330;51.360;6.686;2023-02-07T04:58:47;-1.80;92.80
42663;DHT22;44330;51.360;6.686;2023-02-07T05:01:13;-1.90;92.70
42663;DHT22;44330;51.360;6.686;2023-02-07T05:03:38;-1.80;92.80
42663;DHT22;44330;51.360;6.686;2023-02-07T05:06:05;-1.80;92.90
42663;DHT22;44330;51.360;6.686;2023-02-07T05:08:30;-1.80;93.00
42663;DHT22;44330;51.360;6.686;2023-02-07T05:10:56;-1.70;93.20
42663;DHT22;44330;51.360;6.686;2023-02-07T05:13:22;-1.70;93.20
42663;DHT22;44330;51.360;6.686;2023-02-07T05:15:48;-1.70;93.20
42663;DHT22;44330;51.360;6.686;2023-02-07T05:18:14;-1.70;93.20
42663;DHT22;44330;51.360;6.686;2023-02-07T05:20:40;-1.70;93.20
42663;DHT22;44330;51.360;6.686;2023-02-07T05:23:05;-1.70;93.20
42663;DHT22;44330;51.360;6.686;2023-02-07T05:25:31;-1.70;93.20
42663;DHT22;44330;51.360;6.686;2023-02-07T05:27:56;-1.60;93.20
42663;DHT22;44330;51.360;6.686;2023-02-07T05:30:22;-1.70;93.10
42663;DHT22;44330;51.360;6.686;2023-02-07T05:32:48;-1.60;93.10
42663;DHT22;44330;51.360;6.686;2023-02-07T05:35:33;-1.50;93.00
42663;DHT22;44330;51.360;6.686;2023-02-07T05:37:59;-1.50;92.80
42663;DHT22;44330;51.360;6.686;2023-02-07T05:40:24;-1.50;92.60
42663;DHT22;44330;51.360;6.686;2023-02-07T05:42:50;-1.60;92.40
42663;DHT22;44330;51.360;6.686;2023-02-07T05:45:16;-1.50;92.50
42663;DHT22;44330;51.360;6.686;2023-02-07T05:47:41;-1.50;92.40
42663;DHT22;44330;51.360;6.686;2023-02-07T05:50:07;-1.50;92.20
42663;DHT22;44330;51.360;6.686;2023-02-07T05:52:33;-1.60;92.00
42663;DHT22;44330;51.360;6.686;2023-02-07T05:54:58;-1.60;91.90
42663;DHT22;44330;51.360;6.686;2023-02-07T05:57:24;-1.60;92.00
42663;DHT22;44330;51.360;6.686;2023-02-07T05:59:49;-1.60;92.40
42663;DHT22;44330;51.360;6.686;2023-02-07T06:02:15;-1.60;92.60
42663;DHT22;44330;51.360;6.686;2023-02-07T06:04:40;-1.60;92.60
42663;DHT22;44330;51.360;6.686;2023-02-07T06:07:06;-1.60;92.60
42663;DHT22;44330;51.360;6.686;2023-02-07T06:09:32;-1.60;92.70
42663;DHT22;44330;51.360;6.686;2023-02-07T06:11:58;-1.60;93.00
42663;DHT22;44330;51.360;6.686;2023-02-07T06:14:24;-1.60;93.30
42663;DHT22;44330;51.360;6.686;2023-02-07T06:16:49;-1.50;93.60
42663;DHT22;44330;51.360;6.686;2023-02-07T06:19:15;-1.50;93.60
42663;DHT22;44330;51.360;6.686;2023-02-07T06:21:40;-1.60;93.70
42663;DHT22;44330;51.360;6.686;2023-02-07T06:24:06;-1.50;93.80
42663;DHT22;44330;51.360;6.686;2023-02-07T06:26:32;-1.50;93.80
42663;DHT22;44330;51.360;6.686;2023-02-07T06:28:58;-1.50;93.90
42663;DHT22;44330;51.360;6.686;2023-02-07T06:31:24;-1.50;93.90
42663;DHT22;44330;51.360;6.686;2023-02-07T06:33:49;-1.40;94.00
42663;DHT22;44330;51.360;6.686;2023-02-07T06:36:15;-1.40;94.00
42663;DHT22;44330;51.360;6.686;2023-02-07T06:38:40;-1.40;94.00
42663;DHT22;44330;51.360;6.686;2023-02-07T06:41:06;-1.40;94.00
42663;DHT22;44330;51.360;6.686;2023-02-07T06:43:38;-1.40;93.90
42663;DHT22;44330;51.360;6.686;2023-02-07T06:46:04;-1.40;93.90
42663;DHT22;44330;51.360;6.686;2023-02-07T06:48:29;-1.40;93.90
42663;DHT22;44330;51.360;6.686;2023-02-07T06:50:55;-1.50;93.80
42663;DHT22;44330;51.360;6.686;2023-02-07T06:53:21;-1.50;93.80
42663;DHT22;44330;51.360;6.686;2023-02-07T06:55:46;-1.50;93.80
42663;DHT22;44330;51.360;6.686;2023-02-07T06:58:12;-1.50;93.90
42663;DHT22;44330;51.360;6.686;2023-02-07T07:00:37;-1.50;93.90
42663;DHT22;44330;51.360;6.686;2023-02-07T07:03:03;-1.60;93.90
42663;DHT22;44330;51.360;6.686;2023-02-07T07:05:30;-1.50;94.00
42663;DHT22;44330;51.360;6.686;2023-02-07T07:07:56;-1.40;94.10
42663;DHT22;44330;51.360;6.686;2023-02-07T07:10:22;-1.20;94.00
42663;DHT22;44330;51.360;6.686;2023-02-07T07:12:48;-1.00;93.60
42663;DHT22;44330;51.360;6.686;2023-02-07T07:15:14;-0.90;92.80
42663;DHT22;44330;51.360;6.686;2023-02-07T07:17:40;-0.90;92.00
42663;DHT22;44330;51.360;6.686;2023-02-07T07:20:06;-0.90;91.30
42663;DHT22;44330;51.360;6.686;2023-02-07T07:22:32;-0.90;90.80
42663;DHT22;44330;51.360;6.686;2023-02-07T07:24:58;-0.80;90.50
42663;DHT22;44330;51.360;6.686;2023-02-07T07:27:24;-0.80;89.70
42663;DHT22;44330;51.360;6.686;2023-02-07T07:29:49;-0.80;89.20
42663;DHT22;44330;51.360;6.686;2023-02-07T07:32:15;-0.90;89.10
42663;DHT22;44330;51.360;6.686;2023-02-07T07:34:40;-0.80;89.30
42663;DHT22;44330;51.360;6.686;2023-02-07T07:37:06;-0.80;89.40
42663;DHT22;44330;51.360;6.686;2023-02-07T07:39:32;-0.80;89.50
42663;DHT22;44330;51.360;6.686;2023-02-07T07:41:57;-0.80;89.20
42663;DHT22;44330;51.360;6.686;2023-02-07T07:44:23;-0.80;89.20
42663;DHT22;44330;51.360;6.686;2023-02-07T07:46:48;-0.90;89.20
42663;DHT22;44330;51.360;6.686;2023-02-07T07:49:14;-0.80;89.30
42663;DHT22;44330;51.360;6.686;2023-02-07T07:51:40;-0.70;88.50
42663;DHT22;44330;51.360;6.686;2023-02-07T07:54:06;-0.70;88.20
42663;DHT22;44330;51.360;6.686;2023-02-07T07:56:31;-0.70;87.90
42663;DHT22;44330;51.360;6.686;2023-02-07T07:58:59;-0.70;87.90
42663;DHT22;44330;51.360;6.686;2023-02-07T08:01:25;-0.80;87.90
42663;DHT22;44330;51.360;6.686;2023-02-07T08:03:51;-0.80;88.40
42663;DHT22;44330;51.360;6.686;2023-02-07T08:06:17;-0.80;88.80
42663;DHT22;44330;51.360;6.686;2023-02-07T08:08:42;-0.80;89.10
42663;DHT22;44330;51.360;6.686;2023-02-07T08:11:09;-0.80;89.30
42663;DHT22;44330;51.360;6.686;2023-02-07T08:13:35;-0.80;89.10
42663;DHT22;44330;51.360;6.686;2023-02-07T08:16:01;-0.70;89.30
42663;DHT22;44330;51.360;6.686;2023-02-07T08:18:28;-0.70;89.10
42663;DHT22;44330;51.360;6.686;2023-02-07T08:20:54;-0.60;88.90
42663;DHT22;44330;51.360;6.686;2023-02-07T08:23:20;-0.60;88.90
42663;DHT22;44330;51.360;6.686;2023-02-07T08:25:46;-0.60;88.80
42663;DHT22;44330;51.360;6.686;2023-02-07T08:28:14;-0.60;88.80
42663;DHT22;44330;51.360;6.686;2023-02-07T08:30:39;-0.60;88.80
42663;DHT22;44330;51.360;6.686;2023-02-07T08:33:05;-0.50;87.80
42663;DHT22;44330;51.360;6.686;2023-02-07T08:35:31;-0.50;87.30
42663;DHT22;44330;51.360;6.686;2023-02-07T08:37:56;-0.40;87.70
42663;DHT22;44330;51.360;6.686;2023-02-07T08:40:23;-0.40;88.30
42663;DHT22;44330;51.360;6.686;2023-02-07T08:42:49;-0.40;88.00
42663;DHT22;44330;51.360;6.686;2023-02-07T08:45:15;-0.40;88.20
42663;DHT22;44330;51.360;6.686;2023-02-07T08:47:42;-0.30;88.90
42663;DHT22;44330;51.360;6.686;2023-02-07T08:50:08;-0.20;89.60
42663;DHT22;44330;51.360;6.686;2023-02-07T08:52:34;-0.10;89.90
42663;DHT22;44330;51.360;6.686;2023-02-07T08:55:00;-0.10;90.10
42663;DHT22;44330;51.360;6.686;2023-02-07T08:57:25;0.00;90.40
42663;DHT22;44330;51.360;6.686;2023-02-07T08:59:52;0.10;90.80
42663;DHT22;44330;51.360;6.686;2023-02-07T09:02:17;0.30;91.30
42663;DHT22;44330;51.360;6.686;2023-02-07T09:04:43;0.50;91.70
42663;DHT22;44330;51.360;6.686;2023-02-07T09:07:10;0.80;91.80
42663;DHT22;44330;51.360;6.686;2023-02-07T09:09:36;1.10;91.80
42663;DHT22;44330;51.360;6.686;2023-02-07T09:12:02;1.30;91.40
42663;DHT22;44330;51.360;6.686;2023-02-07T09:14:28;1.70;90.80
42663;DHT22;44330;51.360;6.686;2023-02-07T09:16:54;2.00;86.80
42663;DHT22;44330;51.360;6.686;2023-02-07T09:19:20;2.20;81.40
42663;DHT22;44330;51.360;6.686;2023-02-07T09:21:45;2.60;70.40
42663;DHT22;44330;51.360;6.686;2023-02-07T09:24:11;2.70;63.60
42663;DHT22;44330;51.360;6.686;2023-02-07T09:26:36;3.00;62.80
42663;DHT22;44330;51.360;6.686;2023-02-07T09:29:04;3.30;53.90
42663;DHT22;44330;51.360;6.686;2023-02-07T09:31:31;3.60;50.50
42663;DHT22;44330;51.360;6.686;2023-02-07T09:33:56;3.80;44.10
42663;DHT22;44330;51.360;6.686;2023-02-07T09:36:27;4.10;22.40
42663;DHT22;44330;51.360;6.686;2023-02-07T09:38:53;4.20;8.90
42663;DHT22;44330;51.360;6.686;2023-02-07T09:41:34;4.40;5.10
42663;DHT22;44330;51.360;6.686;2023-02-07T09:46:49;4.70;1.00
42663;DHT22;44330;51.360;6.686;2023-02-07T09:49:27;4.90;1.00
42663;DHT22;44330;51.360;6.686;2023-02-07T09:51:58;5.10;1.00
42663;DHT22;44330;51.360;6.686;2023-02-07T09:54:45;5.20;99.90
42663;DHT22;44330;51.360;6.686;2023-02-07T09:57:17;5.30;1.00
42663;DHT22;44330;51.360;6.686;2023-02-07T09:59:53;5.50;99.90
42663;DHT22;44330;51.360;6.686;2023-02-07T10:02:24;5.50;99.90
42663;DHT22;44330;51.360;6.686;2023-02-07T10:04:51;5.50;99.90
42663;DHT22;44330;51.360;6.686;2023-02-07T10:07:19;5.70;99.90
42663;DHT22;44330;51.360;6.686;2023-02-07T10:09:45;5.90;99.90
42663;DHT22;44330;51.360;6.686;2023-02-07T10:20:39;6.50;99.90
42663;DHT22;44330;51.360;6.686;2023-02-07T10:26:15;6.40;99.90
42663;DHT22;44330;51.360;6.686;2023-02-07T10:31:24;6.90;99.90
42663;DHT22;44330;51.360;6.686;2023-02-07T10:34:09;7.00;99.90
42663;DHT22;44330;51.360;6.686;2023-02-07T10:36:35;7.10;99.90
42663;DHT22;44330;51.360;6.686;2023-02-07T10:39:32;7.20;90.80
42663;DHT22;44330;51.360;6.686;2023-02-07T10:42:01;7.30;99.90
42663;DHT22;44330;51.360;6.686;2023-02-07T10:44:26;7.40;99.90
42663;DHT22;44330;51.360;6.686;2023-02-07T10:47:02;7.80;99.90
42663;DHT22;44330;51.360;6.686;2023-02-07T10:49:35;7.90;1.00
42663;DHT22;44330;51.360;6.686;2023-02-07T10:54:59;8.30;99.90
42663;DHT22;44330;51.360;6.686;2023-02-07T10:57:27;8.50;1.00
42663;DHT22;44330;51.360;6.686;2023-02-07T11:00:21;8.40;99.90
42663;DHT22;44330;51.360;6.686;2023-02-07T11:02:49;8.40;42.40
42663;DHT22;44330;51.360;6.686;2023-02-07T11:07:55;8.20;94.00
42663;DHT22;44330;51.360;6.686;2023-02-07T11:10:39;8.20;63.90
42663;DHT22;44330;51.360;6.686;2023-02-07T11:13:12;8.30;83.60
42663;DHT22;44330;51.360;6.686;2023-02-07T11:15:48;8.30;99.90
42663;DHT22;44330;51.360;6.686;2023-02-07T11:18:32;8.40;1.00
42663;DHT22;44330;51.360;6.686;2023-02-07T11:21:03;8.50;99.90
42663;DHT22;44330;51.360;6.686;2023-02-07T11:23:28;8.70;99.90
42663;DHT22;44330;51.360;6.686;2023-02-07T11:25:55;8.60;30.00
42663;DHT22;44330;51.360;6.686;2023-02-07T11:28:27;8.70;1.00
42663;DHT22;44330;51.360;6.686;2023-02-07T11:31:01;8.70;1.00
42663;DHT22;44330;51.360;6.686;2023-02-07T11:33:32;8.80;1.00
42663;DHT22;44330;51.360;6.686;2023-02-07T11:38:54;8.90;99.90
42663;DHT22;44330;51.360;6.686;2023-02-07T11:41:31;9.00;99.90
42663;DHT22;44330;51.360;6.686;2023-02-07T11:44:13;9.00;99.90
42663;DHT22;44330;51.360;6.686;2023-02-07T11:46:41;8.90;99.90
42663;DHT22;44330;51.360;6.686;2023-02-07T11:51:48;8.70;99.90
42663;DHT22;44330;51.360;6.686;2023-02-07T11:54:14;8.70;99.90
42663;DHT22;44330;51.360;6.686;2023-02-07T11:57:00;8.80;99.90
42663;DHT22;44330;51.360;6.686;2023-02-07T11:59:26;8.80;99.90
42663;DHT22;44330;51.360;6.686;2023-02-07T12:02:00;8.80;99.90
42663;DHT22;44330;51.360;6.686;2023-02-07T12:04:34;8.80;99.90
42663;DHT22;44330;51.360;6.686;2023-02-07T12:07:12;8.50;99.90
42663;DHT22;44330;51.360;6.686;2023-02-07T12:12:50;8.50;99.90
42663;DHT22;44330;51.360;6.686;2023-02-07T12:15:35;8.50;99.90
42663;DHT22;44330;51.360;6.686;2023-02-07T12:18:24;8.40;99.90
42663;DHT22;44330;51.360;6.686;2023-02-07T12:24:06;8.50;99.90
42663;DHT22;44330;51.360;6.686;2023-02-07T12:26:47;8.50;99.90
42663;DHT22;44330;51.360;6.686;2023-02-07T12:38:24;8.50;99.90
42663;DHT22;44330;51.360;6.686;2023-02-07T12:41:04;8.60;99.90
42663;DHT22;44330;51.360;6.686;2023-02-07T12:43:43;8.40;99.90
42663;DHT22;44330;51.360;6.686;2023-02-07T12:46:23;8.40;99.90
42663;DHT22;44330;51.360;6.686;2023-02-07T12:49:14;8.40;99.90
42663;DHT22;44330;51.360;6.686;2023-02-07T12:57:16;8.50;99.90
42663;DHT22;44330;51.360;6.686;2023-02-07T13:00:11;8.40;99.90
42663;DHT22;44330;51.360;6.686;2023-02-07T13:05:49;8.40;99.90
42663;DHT22;44330;51.360;6.686;2023-02-07T13:14:09;8.50;99.90
42663;DHT22;44330;51.360;6.686;2023-02-07T13:16:38;8.60;99.90
42663;DHT22;44330;51.360;6.686;2023-02-07T13:19:35;8.60;99.90
42663;DHT22;44330;51.360;6.686;2023-02-07T13:25:04;8.70;99.90
42663;DHT22;44330;51.360;6.686;2023-02-07T13:27:33;8.70;99.90
42663;DHT22;44330;51.360;6.686;2023-02-07T13:30:00;8.60;99.90
42663;DHT22;44330;51.360;6.686;2023-02-07T13:32:27;8.60;99.90
42663;DHT22;44330;51.360;6.686;2023-02-07T13:35:06;8.60;99.90
42663;DHT22;44330;51.360;6.686;2023-02-07T13:40:28;8.60;99.90
42663;DHT22;44330;51.360;6.686;2023-02-07T13:45:49;8.60;99.90
42663;DHT22;44330;51.360;6.686;2023-02-07T13:48:40;8.60;99.90
42663;DHT22;44330;51.360;6.686;2023-02-07T13:51:42;8.60;99.90
42663;DHT22;44330;51.360;6.686;2023-02-07T13:56:57;8.60;99.90
42663;DHT22;44330;51.360;6.686;2023-02-07T13:59:43;8.70;99.90
42663;DHT22;44330;51.360;6.686;2023-02-07T14:02:20;8.60;99.90
42663;DHT22;44330;51.360;6.686;2023-02-07T14:04:56;8.50;99.90
42663;DHT22;44330;51.360;6.686;2023-02-07T14:07:27;8.60;99.90
42663;DHT22;44330;51.360;6.686;2023-02-07T14:09:54;8.60;99.90
42663;DHT22;44330;51.360;6.686;2023-02-07T14:14:47;8.60;99.90
42663;DHT22;44330;51.360;6.686;2023-02-07T14:19:55;8.60;99.90
42663;DHT22;44330;51.360;6.686;2023-02-07T14:23:16;8.60;99.90
42663;DHT22;44330;51.360;6.686;2023-02-07T14:25:38;8.60;99.90
42663;DHT22;44330;51.360;6.686;2023-02-07T14:35:38;8.60;99.90
42663;DHT22;44330;51.360;6.686;2023-02-07T14:38:27;8.60;99.90
42663;DHT22;44330;51.360;6.686;2023-02-07T14:40:54;8.60;99.90
42663;DHT22;44330;51.360;6.686;2023-02-07T14:43:25;8.60;99.90
42663;DHT22;44330;51.360;6.686;2023-02-07T14:46:31;8.70;99.90
42663;DHT22;44330;51.360;6.686;2023-02-07T14:49:04;8.70;99.90
42663;DHT22;44330;51.360;6.686;2023-02-07T14:51:48;8.70;99.90
42663;DHT22;44330;51.360;6.686;2023-02-07T14:57:03;8.70;99.90
42663;DHT22;44330;51.360;6.686;2023-02-07T14:59:36;8.80;99.90
42663;DHT22;44330;51.360;6.686;2023-02-07T15:02:33;8.80;99.90
42663;DHT22;44330;51.360;6.686;2023-02-07T15:07:37;8.70;99.90
42663;DHT22;44330;51.360;6.686;2023-02-07T15:10:20;8.70;99.90
42663;DHT22;44330;51.360;6.686;2023-02-07T15:12:47;8.70;99.90
42663;DHT22;44330;51.360;6.686;2023-02-07T15:18:18;8.60;99.90
42663;DHT22;44330;51.360;6.686;2023-02-07T15:20:51;8.60;99.90
42663;DHT22;44330;51.360;6.686;2023-02-07T15:23:17;8.60;99.90
42663;DHT22;44330;51.360;6.686;2023-02-07T15:25:44;8.60;99.90
42663;DHT22;44330;51.360;6.686;2023-02-07T15:28:19;8.60;99.90
42663;DHT22;44330;51.360;6.686;2023-02-07T15:33:31;8.40;99.90
42663;DHT22;44330;51.360;6.686;2023-02-07T15:36:02;8.40;99.90
42663;DHT22;44330;51.360;6.686;2023-02-07T15:38:28;8.30;99.90
42663;DHT22;44330;51.360;6.686;2023-02-07T15:40:54;8.20;99.90
42663;DHT22;44330;51.360;6.686;2023-02-07T15:46:01;8.00;99.90
42663;DHT22;44330;51.360;6.686;2023-02-07T15:48:27;7.90;99.90
42663;DHT22;44330;51.360;6.686;2023-02-07T15:50:53;7.80;99.90
42663;DHT22;44330;51.360;6.686;2023-02-07T15:53:24;7.60;99.90
42663;DHT22;44330;51.360;6.686;2023-02-07T15:55:52;7.50;99.90
42663;DHT22;44330;51.360;6.686;2023-02-07T15:58:24;7.40;1.00
42663;DHT22;44330;51.360;6.686;2023-02-07T16:00:51;7.30;99.90
42663;DHT22;44330;51.360;6.686;2023-02-07T16:03:28;7.20;99.90
42663;DHT22;44330;51.360;6.686;2023-02-07T16:06:16;7.20;99.90
42663;DHT22;44330;51.360;6.686;2023-02-07T16:08:43;7.00;99.90
42663;DHT22;44330;51.360;6.686;2023-02-07T16:14:22;6.80;99.90
42663;DHT22;44330;51.360;6.686;2023-02-07T16:16:54;6.70;99.90
42663;DHT22;44330;51.360;6.686;2023-02-07T16:19:23;6.60;99.90
42663;DHT22;44330;51.360;6.686;2023-02-07T16:22:04;6.50;99.90
42663;DHT22;44330;51.360;6.686;2023-02-07T16:24:34;6.50;99.90
42663;DHT22;44330;51.360;6.686;2023-02-07T16:27:00;6.40;99.90
42663;DHT22;44330;51.360;6.686;2023-02-07T16:29:26;6.30;99.90
42663;DHT22;44330;51.360;6.686;2023-02-07T16:31:52;6.20;99.90
42663;DHT22;44330;51.360;6.686;2023-02-07T16:34:19;6.10;99.90
42663;DHT22;44330;51.360;6.686;2023-02-07T16:36:50;6.00;99.90
42663;DHT22;44330;51.360;6.686;2023-02-07T16:39:15;5.90;99.90
42663;DHT22;44330;51.360;6.686;2023-02-07T16:41:50;6.00;99.90
42663;DHT22;44330;51.360;6.686;2023-02-07T16:44:20;5.90;99.90
42663;DHT22;44330;51.360;6.686;2023-02-07T16:46:47;5.90;99.90
42663;DHT22;44330;51.360;6.686;2023-02-07T16:49:19;5.80;99.90
42663;DHT22;44330;51.360;6.686;2023-02-07T16:51:46;5.80;99.90
42663;DHT22;44330;51.360;6.686;2023-02-07T16:54:11;5.70;99.90
42663;DHT22;44330;51.360;6.686;2023-02-07T16:56:37;5.60;99.90
42663;DHT22;44330;51.360;6.686;2023-02-07T16:59:04;5.60;1.00
42663;DHT22;44330;51.360;6.686;2023-02-07T17:01:32;5.40;1.00
42663;DHT22;44330;51.360;6.686;2023-02-07T17:03:58;5.30;20.00
42663;DHT22;44330;51.360;6.686;2023-02-07T17:06:24;5.40;54.20
42663;DHT22;44330;51.360;6.686;2023-02-07T17:08:50;5.50;52.30
42663;DHT22;44330;51.360;6.686;2023-02-07T17:11:19;5.50;33.90
42663;DHT22;44330;51.360;6.686;2023-02-07T17:13:56;5.50;40.30
42663;DHT22;44330;51.360;6.686;2023-02-07T17:16:22;5.40;30.70
42663;DHT22;44330;51.360;6.686;2023-02-07T17:18:48;5.40;25.50
42663;DHT22;44330;51.360;6.686;2023-02-07T17:21:14;5.40;39.30
42663;DHT22;44330;51.360;6.686;2023-02-07T17:23:41;5.40;37.40
42663;DHT22;44330;51.360;6.686;2023-02-07T17:26:37;5.30;40.10
42663;DHT22;44330;51.360;6.686;2023-02-07T17:29:14;5.30;49.40
42663;DHT22;44330;51.360;6.686;2023-02-07T17:31:41;5.30;54.50
42663;DHT22;44330;51.360;6.686;2023-02-07T17:34:06;5.20;55.30
42663;DHT22;44330;51.360;6.686;2023-02-07T17:36:32;5.20;84.70
42663;DHT22;44330;51.360;6.686;2023-02-07T17:38:59;5.20;75.70
42663;DHT22;44330;51.360;6.686;2023-02-07T17:41:25;5.10;96.50
42663;DHT22;44330;51.360;6.686;2023-02-07T17:43:51;5.00;99.90
42663;DHT22;44330;51.360;6.686;2023-02-07T17:46:25;5.00;99.90
42663;DHT22;44330;51.360;6.686;2023-02-07T17:48:52;4.90;99.90
42663;DHT22;44330;51.360;6.686;2023-02-07T17:51:21;4.80;99.90
42663;DHT22;44330;51.360;6.686;2023-02-07T17:53:47;4.70;99.90
42663;DHT22;44330;51.360;6.686;2023-02-07T17:56:26;4.70;99.90
42663;DHT22;44330;51.360;6.686;2023-02-07T17:58:52;4.60;1.00
42663;DHT22;44330;51.360;6.686;2023-02-07T18:01:21;4.50;82.50
42663;DHT22;44330;51.360;6.686;2023-02-07T18:03:51;4.40;99.90
42663;DHT22;44330;51.360;6.686;2023-02-07T18:06:20;4.30;99.90
42663;DHT22;44330;51.360;6.686;2023-02-07T18:08:46;4.20;1.00
42663;DHT22;44330;51.360;6.686;2023-02-07T18:11:12;4.20;99.90
42663;DHT22;44330;51.360;6.686;2023-02-07T18:13:39;4.10;99.90
42663;DHT22;44330;51.360;6.686;2023-02-07T18:16:06;4.00;1.00
42663;DHT22;44330;51.360;6.686;2023-02-07T18:18:38;3.90;95.00
42663;DHT22;44330;51.360;6.686;2023-02-07T18:21:05;3.80;99.90
42663;DHT22;44330;51.360;6.686;2023-02-07T18:23:31;3.70;99.90
42663;DHT22;44330;51.360;6.686;2023-02-07T18:25:57;3.60;21.90
42663;DHT22;44330;51.360;6.686;2023-02-07T18:28:22;3.60;89.60
42663;DHT22;44330;51.360;6.686;2023-02-07T18:30:48;3.60;99.90
42663;DHT22;44330;51.360;6.686;2023-02-07T18:33:14;3.50;99.90
42663;DHT22;44330;51.360;6.686;2023-02-07T18:35:41;3.50;99.90
42663;DHT22;44330;51.360;6.686;2023-02-07T18:38:07;3.40;99.90
42663;DHT22;44330;51.360;6.686;2023-02-07T18:40:33;3.40;1.00
42663;DHT22;44330;51.360;6.686;2023-02-07T18:42:58;3.40;47.70
42663;DHT22;44330;51.360;6.686;2023-02-07T18:45:24;3.30;99.30